createdAt,value
2022-12-20T00:01:19.697Z,95.34
2022-12-20T00:03:46.432Z,95.75
2022-12-20T00:06:13.409Z,96.05
2022-12-20T00:08:40.472Z,96.14
2022-12-20T00:11:08.403Z,95.62
2022-12-20T00:13:35.304Z,94.93
2022-12-20T00:16:08.890Z,94.28
2022-12-20T00:18:36.670Z,93.75
2022-12-20T00:21:04.593Z,93.42
2022-12-20T00:23:31.385Z,93.36
2022-12-20T00:26:07.084Z,93.13
2022-12-20T00:28:34.888Z,93.41
2022-12-20T00:31:01.953Z,92.95
2022-12-20T00:33:29.033Z,92.20
2022-12-20T00:35:56.507Z,91.01
2022-12-20T00:38:24.453Z,91.66
2022-12-20T00:41:12.238Z,93.19
2022-12-20T00:43:39.747Z,93.71
2022-12-20T00:46:08.210Z,93.71
2022-12-20T00:48:35.360Z,93.43
2022-12-20T00:51:10.257Z,92.92
2022-12-20T00:53:36.835Z,92.32
2022-12-20T00:56:04.279Z,92.61
2022-12-20T00:58:32.828Z,92.41
2022-12-20T01:00:59.651Z,92.09
2022-12-20T01:03:27.485Z,91.43
2022-12-20T01:05:57.139Z,91.31
2022-12-20T01:08:24.347Z,91.04
2022-12-20T01:11:10.927Z,90.45
2022-12-20T01:13:39.854Z,90.77
2022-12-20T01:16:17.147Z,90.51
2022-12-20T01:18:43.914Z,90.21
2022-12-20T01:21:12.932Z,89.23
2022-12-20T01:23:39.938Z,88.12
2022-12-20T01:26:08.535Z,88.52
2022-12-20T01:28:36.192Z,87.83
2022-12-20T01:31:02.631Z,89.47
2022-12-20T01:33:28.963Z,90.57
2022-12-20T01:36:04.228Z,91.22
2022-12-20T01:38:31.387Z,91.27
2022-12-20T01:40:57.775Z,91.78
2022-12-20T01:43:26.402Z,91.76
2022-12-20T01:45:52.867Z,91.66
2022-12-20T01:48:25.342Z,91.62
2022-12-20T01:50:52.507Z,91.57
2022-12-20T01:53:22.828Z,91.63
2022-12-20T01:55:49.565Z,91.64
2022-12-20T01:58:19.720Z,90.91
2022-12-20T02:00:46.559Z,90.80
2022-12-20T02:03:14.753Z,91.13
2022-12-20T02:05:43.912Z,91.01
2022-12-20T02:08:11.582Z,90.63
2022-12-20T02:10:49.827Z,90.51
2022-12-20T02:13:32.053Z,90.01
2022-12-20T02:15:59.342Z,89.85
2022-12-20T02:18:31.315Z,89.54
2022-12-20T02:21:27.994Z,89.43
2022-12-20T02:24:03.109Z,89.29
2022-12-20T02:26:41.504Z,88.70
2022-12-20T02:29:25.947Z,88.49
2022-12-20T02:32:00.570Z,88.57
2022-12-20T02:34:29.059Z,88.33
2022-12-20T02:36:55.437Z,88.07
2022-12-20T02:39:24.891Z,88.00
2022-12-20T02:41:55.165Z,87.92
2022-12-20T02:44:26.018Z,87.89
2022-12-20T02:46:54.329Z,87.65
2022-12-20T02:49:24.156Z,87.62
2022-12-20T02:51:52.979Z,87.75
2022-12-20T02:54:19.741Z,88.25
2022-12-20T02:56:52.441Z,88.33
2022-12-20T02:59:24.787Z,88.10
2022-12-20T03:01:54.479Z,88.18
2022-12-20T03:04:26.507Z,88.13
2022-12-20T03:07:13.524Z,88.62
2022-12-20T03:09:42.806Z,88.40
2022-12-20T03:12:11.042Z,88.31
2022-12-20T03:14:40.678Z,88.11
2022-12-20T03:17:07.838Z,88.44
2022-12-20T03:19:34.948Z,88.19
2022-12-20T03:22:01.597Z,87.67
2022-12-20T03:24:28.002Z,87.68
2022-12-20T03:26:54.336Z,87.56
2022-12-20T03:29:20.672Z,87.55
2022-12-20T03:31:46.998Z,87.18
2022-12-20T03:34:13.371Z,87.47
2022-12-20T03:36:39.700Z,87.53
2022-12-20T03:39:06.281Z,87.21
2022-12-20T03:41:32.610Z,87.30
2022-12-20T03:43:58.969Z,86.98
2022-12-20T03:46:25.503Z,86.60
2022-12-20T03:48:52.216Z,86.70
2022-12-20T03:51:18.557Z,86.66
2022-12-20T03:53:44.924Z,86.56
2022-12-20T03:56:11.284Z,86.27
2022-12-20T03:58:37.602Z,85.92
2022-12-20T04:01:23.799Z,85.77
2022-12-20T04:03:50.605Z,85.56
2022-12-20T04:06:17.692Z,85.96
2022-12-20T04:08:44.149Z,86.05
2022-12-20T04:11:10.826Z,86.01
2022-12-20T04:13:37.145Z,86.00
2022-12-20T04:16:03.710Z,86.14
2022-12-20T04:18:30.058Z,85.82
2022-12-20T04:20:56.406Z,86.30
2022-12-20T04:23:22.753Z,86.49
2022-12-20T04:25:49.105Z,86.72
2022-12-20T04:28:15.466Z,87.25
2022-12-20T04:30:41.823Z,87.59
2022-12-20T04:33:08.146Z,87.87
2022-12-20T04:35:34.667Z,88.47
2022-12-20T04:38:01.074Z,89.17
2022-12-20T04:40:27.416Z,89.64
2022-12-20T04:42:53.768Z,89.69
2022-12-20T04:45:20.204Z,89.81
2022-12-20T04:47:46.569Z,90.83
2022-12-20T04:50:12.949Z,90.32
2022-12-20T04:52:45.548Z,90.89
2022-12-20T04:55:13.894Z,91.53
2022-12-20T04:57:40.241Z,91.79
2022-12-20T05:00:07.320Z,91.91
2022-12-20T05:02:33.731Z,91.69
2022-12-20T05:05:00.162Z,91.82
2022-12-20T05:07:26.509Z,91.54
2022-12-20T05:09:52.874Z,91.78
2022-12-20T05:12:19.191Z,91.79
2022-12-20T05:14:45.561Z,91.55
2022-12-20T05:17:11.883Z,91.89
2022-12-20T05:19:38.214Z,91.97
2022-12-20T05:22:04.680Z,91.40
2022-12-20T05:24:31.021Z,91.14
2022-12-20T05:26:57.382Z,90.87
2022-12-20T05:29:23.776Z,90.97
2022-12-20T05:31:50.253Z,90.61
2022-12-20T05:34:16.800Z,90.46
2022-12-20T05:36:43.749Z,90.06
2022-12-20T05:39:10.104Z,90.08
2022-12-20T05:41:36.444Z,90.08
2022-12-20T05:44:03.203Z,89.87
2022-12-20T05:46:29.623Z,89.99
2022-12-20T05:48:56.021Z,89.78
2022-12-20T05:51:22.410Z,89.84
2022-12-20T05:53:48.795Z,90.12
2022-12-20T05:56:15.194Z,90.19
2022-12-20T05:58:41.577Z,90.74
2022-12-20T06:01:08.944Z,91.05
2022-12-20T06:03:35.389Z,91.21
2022-12-20T06:06:01.814Z,91.01
2022-12-20T06:08:28.266Z,91.29
2022-12-20T06:10:54.745Z,91.66
2022-12-20T06:13:21.104Z,91.52
2022-12-20T06:15:47.555Z,91.62
2022-12-20T06:18:14.232Z,91.88
2022-12-20T06:20:40.593Z,91.69
2022-12-20T06:23:07.001Z,91.89
2022-12-20T06:25:33.514Z,92.45
2022-12-20T06:27:59.880Z,92.42
2022-12-20T06:30:31.830Z,92.14
2022-12-20T06:33:00.206Z,91.97
2022-12-20T06:35:26.558Z,91.97
2022-12-20T06:37:52.913Z,92.30
2022-12-20T06:40:19.420Z,92.66
2022-12-20T06:42:45.863Z,92.44
2022-12-20T06:45:12.412Z,92.61
2022-12-20T06:47:38.732Z,92.29
2022-12-20T06:50:05.966Z,92.02
2022-12-20T06:52:32.303Z,91.82
2022-12-20T06:54:58.831Z,91.61
2022-12-20T06:57:25.228Z,91.71
2022-12-20T06:59:51.643Z,91.50
2022-12-20T07:02:18.096Z,91.61
2022-12-20T07:04:44.592Z,91.14
2022-12-20T07:07:13.313Z,90.84
2022-12-20T07:09:40.030Z,90.46
2022-12-20T07:12:07.043Z,90.57
2022-12-20T07:14:33.402Z,90.55
2022-12-20T07:16:59.913Z,90.29
2022-12-20T07:19:26.407Z,90.58
2022-12-20T07:21:52.724Z,90.52
2022-12-20T07:24:19.136Z,90.58
2022-12-20T07:26:45.508Z,90.99
2022-12-20T07:29:15.611Z,91.14
2022-12-20T07:31:42.773Z,90.76
2022-12-20T07:34:10.749Z,90.16
2022-12-20T07:36:37.138Z,89.85
2022-12-20T07:39:03.856Z,89.81
2022-12-20T07:41:30.211Z,89.80
2022-12-20T07:43:56.571Z,89.64
2022-12-20T07:46:23.073Z,87.20
2022-12-20T07:48:49.539Z,87.11
2022-12-20T07:51:21.023Z,87.82
2022-12-20T07:53:53.504Z,88.57
2022-12-20T07:56:21.441Z,88.73
2022-12-20T07:58:51.755Z,89.58
2022-12-20T08:01:18.339Z,89.65
2022-12-20T08:03:49.173Z,90.27
2022-12-20T08:06:16.934Z,90.19
2022-12-20T08:08:49.048Z,90.60
2022-12-20T08:11:17.896Z,91.61
2022-12-20T08:13:46.822Z,91.40
2022-12-20T08:16:14.437Z,91.02
2022-12-20T08:18:40.828Z,91.53
2022-12-20T08:21:07.906Z,91.95
2022-12-20T08:23:34.629Z,91.20
2022-12-20T08:26:01.765Z,91.63
2022-12-20T08:28:28.102Z,91.58
2022-12-20T08:31:01.478Z,91.25
2022-12-20T08:33:27.995Z,90.81
2022-12-20T08:36:03.308Z,91.27
2022-12-20T08:38:29.872Z,90.80
2022-12-20T08:40:56.858Z,90.57
2022-12-20T08:43:23.211Z,89.57
2022-12-20T08:45:56.092Z,90.18
2022-12-20T08:48:23.222Z,89.79
2022-12-20T08:51:07.503Z,89.99
2022-12-20T08:53:35.558Z,90.95
2022-12-20T08:56:07.828Z,90.51
2022-12-20T08:58:34.804Z,90.19
2022-12-20T09:01:06.400Z,90.35
2022-12-20T09:03:34.220Z,90.35
2022-12-20T09:06:01.100Z,89.63
2022-12-20T09:08:27.728Z,90.20
2022-12-20T09:10:54.209Z,89.79
2022-12-20T09:13:20.556Z,90.33
2022-12-20T09:15:46.955Z,89.56
2022-12-20T09:18:13.323Z,88.75
2022-12-20T09:20:44.151Z,88.46
2022-12-20T09:23:10.496Z,88.31
2022-12-20T09:25:36.835Z,88.38
2022-12-20T09:28:05.254Z,88.25
2022-12-20T09:30:31.721Z,88.32
2022-12-20T09:32:58.072Z,89.47
2022-12-20T09:35:36.000Z,88.67
2022-12-20T09:38:02.393Z,86.44
2022-12-20T09:40:31.833Z,83.99
2022-12-20T09:42:58.997Z,82.52
2022-12-20T09:45:32.439Z,81.70
2022-12-20T09:47:58.784Z,81.45
2022-12-20T09:50:43.323Z,81.25
2022-12-20T09:53:19.509Z,80.98
2022-12-20T09:56:03.392Z,80.70
2022-12-20T09:58:36.634Z,80.53
2022-12-20T10:01:21.424Z,80.23
2022-12-20T10:03:51.971Z,79.97
2022-12-20T10:06:28.984Z,79.66
2022-12-20T10:09:00.535Z,79.25
2022-12-20T10:11:50.515Z,79.01
2022-12-20T10:14:36.244Z,78.62
2022-12-20T10:17:05.164Z,78.23
2022-12-20T10:20:02.080Z,77.98
2022-12-20T10:22:54.292Z,77.79
2022-12-20T10:25:29.212Z,77.74
2022-12-20T10:27:56.397Z,78.00
2022-12-20T10:30:26.393Z,77.22
2022-12-20T10:32:55.287Z,76.54
2022-12-20T10:35:37.160Z,75.70
2022-12-20T10:38:10.061Z,75.98
2022-12-20T10:41:18.748Z,76.58
2022-12-20T10:43:27.488Z,76.96
2022-12-20T10:46:06.324Z,77.01
2022-12-20T10:48:32.658Z,77.15
2022-12-20T10:51:05.037Z,76.51
2022-12-20T10:53:32.242Z,75.95
2022-12-20T10:56:21.488Z,76.01
2022-12-20T10:58:59.267Z,75.81
2022-12-20T11:01:29.934Z,75.75
2022-12-20T11:04:00.711Z,75.98
2022-12-20T11:06:40.273Z,76.29
2022-12-20T11:09:27.820Z,76.12
2022-12-20T11:11:58.347Z,75.95
2022-12-20T11:14:25.278Z,75.74
2022-12-20T11:16:53.623Z,76.04
2022-12-20T11:19:41.072Z,76.16
2022-12-20T11:22:31.833Z,76.27
2022-12-20T11:25:16.905Z,76.03
2022-12-20T11:28:05.326Z,74.94
2022-12-20T11:30:53.892Z,74.80
2022-12-20T11:33:41.519Z,74.52
2022-12-20T11:36:16.091Z,74.72
2022-12-20T11:39:01.190Z,74.81
2022-12-20T11:41:54.152Z,74.93
2022-12-20T11:44:32.759Z,75.50
2022-12-20T11:47:27.359Z,75.71
2022-12-20T11:50:08.589Z,75.62
2022-12-20T11:52:38.966Z,75.20
2022-12-20T11:55:28.326Z,74.65
2022-12-20T12:00:53.162Z,74.70
2022-12-20T12:03:24.305Z,75.07
2022-12-20T12:06:06.177Z,75.38
2022-12-20T12:08:47.978Z,75.16
2022-12-20T12:12:04.712Z,74.94
2022-12-20T12:14:06.182Z,75.12
2022-12-20T12:16:41.464Z,74.88
2022-12-20T12:19:10.669Z,74.73
2022-12-20T12:21:52.277Z,74.40
2022-12-20T12:24:26.559Z,74.09
2022-12-20T12:26:53.308Z,74.02
2022-12-20T12:29:20.759Z,74.34
2022-12-20T12:31:58.090Z,73.96
2022-12-20T12:34:36.210Z,74.21
2022-12-20T12:37:26.564Z,74.88
2022-12-20T12:40:17.849Z,75.78
2022-12-20T12:43:21.121Z,76.24
2022-12-20T12:45:52.787Z,76.22
2022-12-20T12:48:37.840Z,76.10
2022-12-20T12:51:05.578Z,76.33
2022-12-20T12:53:49.207Z,75.98
2022-12-20T12:56:45.609Z,76.40
2022-12-20T12:59:12.319Z,76.80
2022-12-20T13:01:54.171Z,76.73
2022-12-20T13:04:20.749Z,76.54
2022-12-20T13:06:47.008Z,76.73
2022-12-20T13:09:21.352Z,76.84
2022-12-20T13:11:53.732Z,76.74
2022-12-20T13:14:26.778Z,76.44
2022-12-20T13:17:12.021Z,76.40
2022-12-20T13:19:39.673Z,76.78
2022-12-20T13:22:06.007Z,77.04
2022-12-20T13:24:37.616Z,77.10
2022-12-20T13:27:32.229Z,76.68
2022-12-20T13:30:04.275Z,77.57
2022-12-20T13:32:49.023Z,77.12
2022-12-20T13:35:24.588Z,77.85
2022-12-20T13:38:05.974Z,78.08
2022-12-20T13:40:41.812Z,77.59
2022-12-20T13:43:24.034Z,78.13
2022-12-20T13:46:14.672Z,79.10
2022-12-20T13:48:52.073Z,79.62
2022-12-20T13:51:21.107Z,79.91
2022-12-20T13:54:25.006Z,80.65
2022-12-20T13:56:53.404Z,81.24
2022-12-20T13:59:25.363Z,81.04
2022-12-20T14:01:55.093Z,80.79
2022-12-20T14:04:21.660Z,80.05
2022-12-20T14:06:58.235Z,79.81
2022-12-20T14:09:37.183Z,79.56
2022-12-20T14:12:12.647Z,79.81
2022-12-20T14:14:43.980Z,80.09
2022-12-20T14:17:16.435Z,79.70
2022-12-20T14:19:43.608Z,79.87
2022-12-20T14:22:13.555Z,79.59
2022-12-20T14:24:43.667Z,79.70
2022-12-20T14:27:14.442Z,79.83
2022-12-20T14:29:40.761Z,80.50
2022-12-20T14:32:20.428Z,80.00
2022-12-20T14:34:47.657Z,79.99
2022-12-20T14:37:23.725Z,80.08
2022-12-20T14:40:02.159Z,80.40
2022-12-20T14:42:34.217Z,80.43
2022-12-20T14:45:09.443Z,79.94
2022-12-20T14:47:37.598Z,80.06
2022-12-20T14:50:13.812Z,79.81
2022-12-20T14:52:42.026Z,79.81
2022-12-20T14:55:19.020Z,79.85
2022-12-20T14:57:48.652Z,79.82
2022-12-20T15:00:17.968Z,79.75
2022-12-20T15:02:56.981Z,79.74
2022-12-20T15:05:40.995Z,79.24
2022-12-20T15:08:23.782Z,79.13
2022-12-20T15:10:54.361Z,79.29
2022-12-20T15:13:25.424Z,79.46
2022-12-20T15:15:51.763Z,79.88
2022-12-20T15:18:20.480Z,80.20
2022-12-20T15:21:01.312Z,79.99
2022-12-20T15:23:27.801Z,80.31
2022-12-20T15:25:54.099Z,80.47
2022-12-20T15:28:24.120Z,80.98
2022-12-20T15:30:51.901Z,81.56
2022-12-20T15:33:25.018Z,84.34
2022-12-20T15:35:52.550Z,86.10
2022-12-20T15:38:35.067Z,88.36
2022-12-20T15:41:17.640Z,90.33
2022-12-20T15:43:44.154Z,91.86
2022-12-20T15:46:10.735Z,92.83
2022-12-20T15:48:37.152Z,93.71
2022-12-20T15:51:16.229Z,93.75
2022-12-20T15:53:42.564Z,94.03
2022-12-20T15:56:17.057Z,94.40
2022-12-20T15:58:43.389Z,95.61
2022-12-20T16:01:13.983Z,95.62
2022-12-20T16:03:40.450Z,95.99
2022-12-20T16:06:10.747Z,95.38
2022-12-20T16:08:37.060Z,96.27
2022-12-20T16:11:06.270Z,96.32
2022-12-20T16:13:33.644Z,96.83
2022-12-20T16:16:00.044Z,96.57
2022-12-20T16:18:30.132Z,96.77
2022-12-20T16:21:00.687Z,97.00
2022-12-20T16:23:27.023Z,97.91
2022-12-20T16:25:53.320Z,98.27
2022-12-20T16:28:19.680Z,98.56
2022-12-20T16:30:52.692Z,99.03
2022-12-20T16:33:20.971Z,99.51
2022-12-20T16:35:47.583Z,99.26
2022-12-20T16:38:14.008Z,99.56
2022-12-20T16:40:40.337Z,99.29
2022-12-20T16:43:13.741Z,99.66
2022-12-20T16:45:40.060Z,99.53
2022-12-20T16:48:06.502Z,99.53
2022-12-20T16:50:32.819Z,99.19
2022-12-20T16:52:59.139Z,99.20
2022-12-20T16:55:27.433Z,99.50
2022-12-20T16:57:54.165Z,99.00
2022-12-20T17:00:22.375Z,99.04
2022-12-20T17:02:49.899Z,99.25
2022-12-20T17:05:23.093Z,99.49
2022-12-20T17:07:49.670Z,99.70
2022-12-20T17:10:16.245Z,100.00
2022-12-20T17:12:42.745Z,99.77
2022-12-20T17:15:18.720Z,99.77
2022-12-20T17:17:45.032Z,99.81
2022-12-20T17:20:12.251Z,99.39
2022-12-20T17:25:33.390Z,99.34
2022-12-20T17:27:59.714Z,99.70
2022-12-20T17:30:26.284Z,100.00
2022-12-20T17:32:53.792Z,100.00
2022-12-20T17:35:25.815Z,100.00
2022-12-20T17:37:52.136Z,100.00
2022-12-20T17:40:18.585Z,99.33
2022-12-20T17:42:45.294Z,98.96
2022-12-20T17:45:27.223Z,99.25
2022-12-20T17:47:54.536Z,99.60
2022-12-20T17:50:21.772Z,100.00
2022-12-20T17:52:48.392Z,100.00
2022-12-20T17:55:23.694Z,100.00
2022-12-20T17:57:50.089Z,100.00
2022-12-20T18:00:39.501Z,100.00
2022-12-20T18:03:06.796Z,100.00
2022-12-20T18:05:33.226Z,100.00
2022-12-20T18:07:59.555Z,100.00
2022-12-20T18:10:25.843Z,99.94
2022-12-20T18:12:52.151Z,100.00
2022-12-20T18:15:18.574Z,99.87
2022-12-20T18:17:44.961Z,99.76
2022-12-20T18:20:11.933Z,99.58
2022-12-20T18:22:38.263Z,99.43
2022-12-20T18:25:05.338Z,99.43
2022-12-20T18:27:31.658Z,99.78
2022-12-20T18:29:57.970Z,99.66
2022-12-20T18:32:24.330Z,99.42
2022-12-20T18:34:50.631Z,99.47
2022-12-20T18:37:16.976Z,99.76
2022-12-20T18:39:43.273Z,99.72
2022-12-20T18:42:09.600Z,99.79
2022-12-20T18:44:36.152Z,99.75
2022-12-20T18:47:02.956Z,99.72
2022-12-20T18:49:29.670Z,99.83
2022-12-20T18:51:56.006Z,99.61
2022-12-20T18:54:22.302Z,99.39
2022-12-20T18:56:49.124Z,99.41
2022-12-20T18:59:15.502Z,99.35
2022-12-20T19:01:42.640Z,99.49
2022-12-20T19:04:09.804Z,99.39
2022-12-20T19:06:36.966Z,99.48
2022-12-20T19:09:07.043Z,99.49
2022-12-20T19:11:33.822Z,99.43
2022-12-20T19:14:00.377Z,99.32
2022-12-20T19:16:29.016Z,99.38
2022-12-20T19:18:55.363Z,99.39
2022-12-20T19:21:24.905Z,99.12
2022-12-20T19:23:54.250Z,99.27
2022-12-20T19:26:22.797Z,99.15
2022-12-20T19:28:49.617Z,99.39
2022-12-20T19:31:21.896Z,99.42
2022-12-20T19:33:49.714Z,99.43
2022-12-20T19:36:22.516Z,99.33
2022-12-20T19:38:51.285Z,99.29
2022-12-20T19:41:19.558Z,99.42
2022-12-20T19:43:49.604Z,99.27
2022-12-20T19:46:15.996Z,98.72
2022-12-20T19:48:42.373Z,98.01
2022-12-20T19:51:15.107Z,97.76
2022-12-20T19:53:43.728Z,97.56
2022-12-20T19:56:12.630Z,97.23
2022-12-20T19:58:39.556Z,97.57
2022-12-20T20:01:07.669Z,97.58
2022-12-20T20:03:35.743Z,97.55
2022-12-20T20:06:03.330Z,97.57
2022-12-20T20:08:29.649Z,97.72
2022-12-20T20:10:57.895Z,97.58
2022-12-20T20:13:25.224Z,97.81
2022-12-20T20:15:53.945Z,97.46
2022-12-20T20:18:20.853Z,97.05
2022-12-20T20:20:47.187Z,97.73
2022-12-20T20:23:14.511Z,97.90
2022-12-20T20:25:45.839Z,97.74
2022-12-20T20:28:12.290Z,98.39
2022-12-20T20:30:46.872Z,98.45
2022-12-20T20:33:13.515Z,98.30
2022-12-20T20:35:39.961Z,98.47
2022-12-20T20:38:07.087Z,98.77
2022-12-20T20:40:33.862Z,98.66
2022-12-20T20:43:00.651Z,97.78
2022-12-20T20:45:26.959Z,97.20
2022-12-20T20:47:53.268Z,96.88
2022-12-20T20:50:19.561Z,96.36
2022-12-20T20:52:45.962Z,96.83
2022-12-20T20:55:12.327Z,97.26
2022-12-20T20:57:38.729Z,97.72
2022-12-20T21:00:06.734Z,97.95
2022-12-20T21:02:33.238Z,97.80
2022-12-20T21:05:52.541Z,97.66
2022-12-20T21:07:46.023Z,97.67
2022-12-20T21:10:12.679Z,98.01
2022-12-20T21:12:39.247Z,98.41
2022-12-20T21:15:22.496Z,98.80
2022-12-20T21:17:49.824Z,99.05
2022-12-20T21:20:18.394Z,98.94
2022-12-20T21:22:48.484Z,98.61
2022-12-20T21:25:14.802Z,98.32
2022-12-20T21:27:41.149Z,98.18
2022-12-20T21:30:08.021Z,98.40
2022-12-20T21:32:34.391Z,97.90
2022-12-20T21:35:00.753Z,98.02
2022-12-20T21:37:29.849Z,98.02
2022-12-20T21:39:56.158Z,98.45
2022-12-20T21:42:22.705Z,98.35
2022-12-20T21:44:48.996Z,98.79
2022-12-20T21:47:15.317Z,98.97
2022-12-20T21:49:41.623Z,99.11
2022-12-20T21:52:07.950Z,99.28
2022-12-20T21:54:34.293Z,99.64
2022-12-20T21:57:00.642Z,100.00
2022-12-20T21:59:27.021Z,100.00
2022-12-20T22:01:53.575Z,100.00
2022-12-20T22:04:20.093Z,100.00
2022-12-20T22:06:46.421Z,100.00
2022-12-20T22:09:12.758Z,100.00
2022-12-20T22:11:39.751Z,100.00
2022-12-20T22:14:06.577Z,100.00
2022-12-20T22:16:33.209Z,100.00
2022-12-20T22:18:59.683Z,100.00
2022-12-20T22:21:28.554Z,100.00
2022-12-20T22:23:55.628Z,100.00
2022-12-20T22:26:24.704Z,100.00
2022-12-20T22:28:59.821Z,100.00
2022-12-20T22:31:26.585Z,100.00
2022-12-20T22:33:54.259Z,100.00
2022-12-20T22:36:21.313Z,100.00
2022-12-20T22:38:47.622Z,100.00
2022-12-20T22:41:15.289Z,100.00
2022-12-20T22:43:42.580Z,100.00
2022-12-20T22:46:09.181Z,100.00
2022-12-20T22:48:35.598Z,100.00
2022-12-20T22:51:05.259Z,100.00
2022-12-20T22:53:33.164Z,100.00
2022-12-20T22:55:59.905Z,100.00
2022-12-20T22:58:27.184Z,100.00
2022-12-20T23:01:01.767Z,100.00
2022-12-20T23:03:29.458Z,100.00
2022-12-20T23:06:01.219Z,100.00
2022-12-20T23:08:29.884Z,100.00
2022-12-20T23:10:56.303Z,100.00
2022-12-20T23:13:22.626Z,100.00
2022-12-20T23:15:48.937Z,100.00
2022-12-20T23:18:15.273Z,100.00
2022-12-20T23:20:41.602Z,100.00
2022-12-20T23:23:09.002Z,100.00
2022-12-20T23:25:35.723Z,100.00
2022-12-20T23:28:02.035Z,100.00
2022-12-20T23:30:28.547Z,100.00
2022-12-20T23:32:54.863Z,100.00
2022-12-20T23:35:21.263Z,100.00
2022-12-20T23:37:47.941Z,100.00
2022-12-20T23:40:15.917Z,100.00
2022-12-20T23:42:42.611Z,100.00
2022-12-20T23:45:09.513Z,100.00
2022-12-20T23:47:36.105Z,100.00
2022-12-20T23:50:02.680Z,100.00
2022-12-20T23:52:29.050Z,100.00
2022-12-20T23:54:55.345Z,100.00
2022-12-20T23:57:21.684Z,100.00
2022-12-20T23:59:47.992Z,100.00
